createdAt,value
2018-06-07T00:00:35.027Z,22.10
2018-06-07T00:03:03.246Z,21.90
2018-06-07T00:05:31.398Z,21.90
2018-06-07T00:07:59.602Z,21.90
2018-06-07T00:10:27.855Z,21.90
2018-06-07T00:12:56.059Z,21.70
2018-06-07T00:17:51.949Z,21.80
2018-06-07T00:20:20.198Z,21.90
2018-06-07T00:22:48.507Z,21.70
2018-06-07T00:25:16.730Z,21.70
2018-06-07T00:27:44.985Z,21.80
2018-06-07T00:30:13.197Z,21.80
2018-06-07T00:32:41.442Z,21.70
2018-06-07T00:35:09.655Z,21.60
2018-06-07T00:37:37.894Z,21.60
2018-06-07T00:40:06.110Z,21.40
2018-06-07T00:42:34.306Z,21.40
2018-06-07T00:45:02.669Z,21.40
2018-06-07T00:47:30.951Z,21.30
2018-06-07T00:49:59.162Z,21.40
2018-06-07T00:52:27.338Z,21.40
2018-06-07T00:54:55.458Z,21.30
2018-06-07T00:57:23.707Z,21.30
2018-06-07T00:59:51.988Z,21.30
2018-06-07T01:02:20.262Z,21.30
2018-06-07T01:04:48.517Z,21.30
2018-06-07T01:07:16.721Z,21.20
2018-06-07T01:09:44.894Z,21.20
2018-06-07T01:12:13.162Z,21.20
2018-06-07T01:14:41.437Z,21.20
2018-06-07T01:17:09.706Z,21.10
2018-06-07T01:19:37.912Z,21.10
2018-06-07T01:22:05.924Z,21.20
2018-06-07T01:24:34.200Z,21.10
2018-06-07T01:27:02.543Z,20.90
2018-06-07T01:29:36.327Z,20.90
2018-06-07T01:32:28.264Z,21.00
2018-06-07T01:34:56.511Z,21.10
2018-06-07T01:37:24.654Z,21.00
2018-06-07T01:39:52.782Z,21.10
2018-06-07T01:42:20.987Z,20.90
2018-06-07T01:44:49.198Z,20.80
2018-06-07T01:47:17.480Z,20.80
2018-06-07T01:49:45.671Z,20.70
2018-06-07T01:52:13.962Z,20.80
2018-06-07T01:54:42.222Z,20.90
2018-06-07T01:57:10.479Z,20.80
2018-06-07T01:59:38.750Z,20.60
2018-06-07T02:02:06.972Z,20.60
2018-06-07T02:04:35.212Z,20.40
2018-06-07T02:07:03.399Z,20.30
2018-06-07T02:09:31.570Z,20.40
2018-06-07T02:11:59.903Z,20.40
2018-06-07T02:14:28.146Z,20.50
2018-06-07T02:16:56.383Z,20.50
2018-06-07T02:19:24.622Z,20.50
2018-06-07T02:21:52.839Z,20.50
2018-06-07T02:24:21.103Z,20.20
2018-06-07T02:26:49.351Z,20.10
2018-06-07T02:29:17.647Z,19.90
2018-06-07T02:31:45.934Z,20.10
2018-06-07T02:34:14.164Z,19.90
2018-06-07T02:36:42.354Z,20.00
2018-06-07T02:39:10.535Z,19.70
2018-06-07T02:41:38.804Z,19.70
2018-06-07T02:44:07.022Z,19.70
2018-06-07T02:46:35.263Z,19.70
2018-06-07T02:49:03.518Z,19.80
2018-06-07T02:51:31.735Z,19.90
2018-06-07T02:53:59.986Z,20.10
2018-06-07T02:56:28.240Z,20.20
2018-06-07T02:58:56.407Z,20.20
2018-06-07T03:01:24.652Z,20.10
2018-06-07T03:03:52.845Z,20.00
2018-06-07T03:06:21.102Z,19.90
2018-06-07T03:08:49.366Z,19.80
2018-06-07T03:11:17.686Z,19.40
2018-06-07T03:13:45.954Z,19.40
2018-06-07T03:16:14.166Z,19.40
2018-06-07T03:18:42.436Z,19.30
2018-06-07T03:21:10.680Z,19.30
2018-06-07T03:23:38.968Z,19.20
2018-06-07T03:26:07.244Z,19.30
2018-06-07T03:28:35.518Z,19.40
2018-06-07T03:31:03.760Z,19.30
2018-06-07T03:33:32.077Z,19.30
2018-06-07T03:36:00.318Z,19.30
2018-06-07T03:38:28.496Z,19.30
2018-06-07T03:40:56.670Z,19.10
2018-06-07T03:43:24.910Z,19.20
2018-06-07T03:45:53.121Z,19.40
2018-06-07T03:48:21.346Z,19.40
2018-06-07T03:50:49.605Z,19.50
2018-06-07T03:53:17.975Z,19.40
2018-06-07T03:55:46.166Z,19.50
2018-06-07T03:58:14.409Z,19.50
2018-06-07T04:00:42.677Z,19.60
2018-06-07T04:03:10.926Z,19.60
2018-06-07T04:05:39.124Z,19.60
2018-06-07T04:08:07.413Z,19.50
2018-06-07T04:10:35.752Z,19.50
2018-06-07T04:13:04.062Z,19.60
2018-06-07T04:15:32.269Z,19.60
2018-06-07T04:18:00.544Z,19.60
2018-06-07T04:20:28.794Z,19.60
2018-06-07T04:22:57.017Z,19.60
2018-06-07T04:25:25.274Z,19.70
2018-06-07T04:27:53.526Z,19.80
2018-06-07T04:30:21.782Z,19.80
2018-06-07T04:32:50.043Z,19.70
2018-06-07T04:35:18.360Z,19.50
2018-06-07T04:37:46.589Z,19.50
2018-06-07T04:40:14.851Z,19.50
2018-06-07T04:42:43.107Z,19.40
2018-06-07T04:45:11.414Z,19.30
2018-06-07T04:47:39.609Z,19.30
2018-06-07T04:50:07.851Z,19.20
2018-06-07T04:52:36.171Z,19.10
2018-06-07T04:55:04.483Z,19.20
2018-06-07T04:57:32.733Z,19.40
2018-06-07T05:00:00.934Z,19.50
2018-06-07T05:02:29.118Z,19.50
2018-06-07T05:04:57.276Z,19.60
2018-06-07T05:07:25.515Z,19.70
2018-06-07T05:09:53.744Z,19.80
2018-06-07T05:12:21.977Z,19.80
2018-06-07T05:14:50.198Z,19.70
2018-06-07T05:17:18.453Z,19.80
2018-06-07T05:19:46.694Z,19.80
2018-06-07T05:22:14.942Z,19.80
2018-06-07T05:24:43.137Z,19.90
2018-06-07T05:27:11.304Z,20.00
2018-06-07T05:29:39.554Z,20.00
2018-06-07T05:32:07.801Z,20.10
2018-06-07T05:34:35.951Z,20.20
2018-06-07T05:37:04.179Z,20.20
2018-06-07T05:39:32.418Z,20.30
2018-06-07T05:42:00.657Z,20.40
2018-06-07T05:44:28.932Z,20.60
2018-06-07T05:46:57.231Z,20.80
2018-06-07T05:49:25.449Z,20.70
2018-06-07T05:51:53.676Z,20.70
2018-06-07T05:54:23.870Z,20.80
2018-06-07T05:56:52.277Z,20.90
2018-06-07T05:59:20.489Z,21.00
2018-06-07T06:01:48.644Z,21.10
2018-06-07T06:04:16.845Z,21.30
2018-06-07T06:06:45.116Z,21.50
2018-06-07T06:09:13.438Z,21.60
2018-06-07T06:11:41.722Z,21.90
2018-06-07T06:14:09.980Z,22.10
2018-06-07T06:16:38.163Z,22.30
2018-06-07T06:19:06.445Z,22.60
2018-06-07T06:21:34.693Z,22.90
2018-06-07T06:24:02.930Z,23.00
2018-06-07T06:26:31.115Z,23.20
2018-06-07T06:28:59.339Z,23.40
2018-06-07T06:31:27.586Z,23.70
2018-06-07T06:33:55.798Z,23.90
2018-06-07T06:36:24.050Z,24.20
2018-06-07T06:38:52.462Z,24.30
2018-06-07T06:41:20.659Z,24.60
2018-06-07T06:43:48.881Z,24.90
2018-06-07T06:46:17.090Z,25.00
2018-06-07T06:48:45.278Z,25.00
2018-06-07T06:51:13.503Z,25.20
2018-06-07T06:53:41.729Z,25.30
2018-06-07T06:56:09.956Z,25.40
2018-06-07T06:58:38.210Z,25.60
2018-06-07T07:01:06.438Z,25.90
2018-06-07T07:03:34.661Z,26.20
2018-06-07T07:06:02.805Z,26.30
2018-06-07T07:08:31.079Z,26.50
2018-06-07T07:10:59.296Z,26.70
2018-06-07T07:13:27.582Z,26.80
2018-06-07T07:15:55.847Z,27.30
2018-06-07T07:18:24.050Z,27.50
2018-06-07T07:20:52.262Z,27.70
2018-06-07T07:23:20.582Z,27.90
2018-06-07T07:25:48.862Z,28.10
2018-06-07T07:28:17.187Z,28.30
2018-06-07T07:30:45.415Z,28.60
2018-06-07T07:33:13.665Z,29.00
2018-06-07T07:35:41.871Z,29.00
2018-06-07T07:38:10.112Z,29.20
2018-06-07T07:40:38.330Z,29.70
2018-06-07T07:43:06.554Z,30.00
2018-06-07T07:45:34.730Z,30.10
2018-06-07T07:48:02.826Z,29.80
2018-06-07T07:50:31.007Z,30.00
2018-06-07T07:52:59.242Z,30.20
2018-06-07T07:55:27.369Z,30.70
2018-06-07T07:57:55.446Z,30.70
2018-06-07T08:02:51.102Z,30.80
2018-06-07T08:05:19.166Z,30.90
2018-06-07T08:07:47.224Z,31.40
2018-06-07T08:10:15.281Z,31.40
2018-06-07T08:12:43.301Z,31.70
2018-06-07T08:15:11.372Z,31.80
2018-06-07T08:17:39.529Z,31.90
2018-06-07T08:20:07.650Z,32.00
2018-06-07T08:22:35.777Z,32.30
2018-06-07T08:25:03.942Z,32.60
2018-06-07T08:27:32.042Z,32.90
2018-06-07T08:30:00.151Z,32.50
2018-06-07T08:32:28.206Z,32.80
2018-06-07T08:34:56.302Z,33.00
2018-06-07T08:37:24.369Z,33.30
2018-06-07T08:39:52.434Z,33.40
2018-06-07T08:42:20.495Z,33.20
2018-06-07T08:44:48.551Z,33.00
2018-06-07T08:47:16.638Z,33.20
2018-06-07T08:49:44.702Z,33.80
2018-06-07T08:52:12.778Z,34.00
2018-06-07T08:54:45.059Z,34.30
2018-06-07T08:57:13.138Z,34.20
2018-06-07T08:59:41.206Z,34.70
2018-06-07T09:02:09.249Z,34.10
2018-06-07T09:04:37.357Z,34.50
2018-06-07T09:07:05.455Z,34.50
2018-06-07T09:09:34.547Z,34.40
2018-06-07T09:12:02.681Z,35.00
2018-06-07T09:14:30.754Z,35.20
2018-06-07T09:16:58.830Z,35.20
2018-06-07T09:19:26.917Z,35.30
2018-06-07T09:21:55.005Z,35.90
2018-06-07T09:24:23.054Z,36.10
2018-06-07T09:26:51.090Z,35.80
2018-06-07T09:29:19.192Z,35.40
2018-06-07T09:31:47.266Z,35.60
2018-06-07T09:34:15.334Z,35.40
2018-06-07T09:36:43.405Z,35.70
2018-06-07T09:39:11.455Z,35.20
2018-06-07T09:41:39.560Z,35.20
2018-06-07T09:44:07.627Z,35.60
2018-06-07T09:46:35.779Z,35.80
2018-06-07T09:49:03.930Z,35.50
2018-06-07T09:51:31.958Z,35.10
2018-06-07T09:54:00.050Z,34.70
2018-06-07T09:56:28.106Z,35.20
2018-06-07T09:58:56.177Z,35.30
2018-06-07T10:01:24.277Z,34.80
2018-06-07T10:03:52.329Z,35.10
2018-06-07T10:06:20.438Z,34.90
2018-06-07T10:08:48.486Z,34.60
2018-06-07T10:11:16.570Z,34.60
2018-06-07T10:13:44.642Z,34.30
2018-06-07T10:16:12.700Z,34.80
2018-06-07T10:18:40.790Z,34.90
2018-06-07T10:21:08.849Z,34.80
2018-06-07T10:23:36.951Z,34.60
2018-06-07T10:26:05.085Z,34.60
2018-06-07T10:28:33.147Z,34.50
2018-06-07T10:31:01.285Z,34.30
2018-06-07T10:33:29.351Z,33.70
2018-06-07T10:35:57.446Z,33.60
2018-06-07T10:38:25.553Z,33.00
2018-06-07T10:40:53.634Z,33.40
2018-06-07T10:43:21.714Z,33.30
2018-06-07T10:45:49.766Z,33.40
2018-06-07T10:48:17.869Z,33.30
2018-06-07T10:50:45.953Z,33.00
2018-06-07T10:53:14.026Z,33.80
2018-06-07T10:55:42.107Z,34.10
2018-06-07T10:58:10.186Z,33.70
2018-06-07T11:00:38.285Z,34.40
2018-06-07T11:03:06.354Z,34.50
2018-06-07T11:05:34.387Z,34.90
2018-06-07T11:08:02.498Z,35.50
2018-06-07T11:10:30.536Z,35.50
2018-06-07T11:12:58.630Z,35.60
2018-06-07T11:15:26.678Z,35.50
2018-06-07T11:17:54.781Z,34.90
2018-06-07T11:20:22.868Z,34.50
2018-06-07T11:22:50.889Z,34.20
2018-06-07T11:25:18.992Z,34.20
2018-06-07T11:27:47.030Z,34.10
2018-06-07T11:30:15.145Z,34.10
2018-06-07T11:32:43.297Z,34.00
2018-06-07T11:35:11.366Z,33.70
2018-06-07T11:37:39.462Z,33.40
2018-06-07T11:40:07.505Z,33.20
2018-06-07T11:42:35.587Z,32.80
2018-06-07T11:45:03.790Z,32.50
2018-06-07T11:47:31.846Z,32.30
2018-06-07T11:49:59.959Z,31.90
2018-06-07T11:52:28.005Z,31.70
2018-06-07T11:54:56.190Z,31.30
2018-06-07T11:57:24.284Z,30.90
2018-06-07T11:59:52.346Z,30.10
2018-06-07T12:02:20.432Z,30.00
2018-06-07T12:04:48.480Z,30.20
2018-06-07T12:07:16.588Z,30.00
2018-06-07T12:09:44.688Z,29.90
2018-06-07T12:12:12.762Z,30.00
2018-06-07T12:14:40.857Z,30.00
2018-06-07T12:17:08.911Z,29.90
2018-06-07T12:19:37.020Z,29.90
2018-06-07T12:22:05.188Z,29.90
2018-06-07T12:24:33.258Z,29.40
2018-06-07T12:27:01.346Z,29.70
2018-06-07T12:29:29.401Z,29.50
2018-06-07T12:31:57.526Z,29.60
2018-06-07T12:34:25.647Z,29.60
2018-06-07T12:36:53.724Z,29.60
2018-06-07T12:39:21.792Z,29.70
2018-06-07T12:41:49.850Z,29.70
2018-06-07T12:44:17.917Z,29.60
2018-06-07T12:46:46.345Z,29.40
2018-06-07T12:49:14.413Z,29.10
2018-06-07T12:51:42.510Z,28.90
2018-06-07T12:56:38.187Z,28.80
2018-06-07T12:59:06.297Z,28.70
2018-06-07T13:01:34.369Z,28.70
2018-06-07T13:04:02.441Z,28.80
2018-06-07T13:06:30.489Z,28.80
2018-06-07T13:08:58.609Z,28.80
2018-06-07T13:11:26.682Z,28.60
2018-06-07T13:13:54.733Z,28.50
2018-06-07T13:16:22.881Z,28.40
2018-06-07T13:18:51.053Z,28.30
2018-06-07T13:21:19.216Z,28.40
2018-06-07T13:23:47.368Z,28.50
2018-06-07T13:26:15.563Z,28.40
2018-06-07T13:28:43.718Z,28.40
2018-06-07T13:31:11.833Z,28.40
2018-06-07T13:33:39.914Z,28.50
2018-06-07T13:36:08.043Z,28.30
2018-06-07T13:38:36.153Z,28.20
2018-06-07T13:41:04.220Z,28.20
2018-06-07T13:43:32.270Z,28.30
2018-06-07T13:46:00.358Z,28.20
2018-06-07T13:48:28.493Z,28.10
2018-06-07T13:50:56.563Z,27.90
2018-06-07T13:53:24.803Z,28.00
2018-06-07T13:55:52.869Z,28.00
2018-06-07T13:58:20.963Z,28.20
2018-06-07T14:00:49.046Z,28.30
2018-06-07T14:03:17.089Z,28.20
2018-06-07T14:05:45.186Z,28.10
2018-06-07T14:08:13.233Z,28.10
2018-06-07T14:10:41.306Z,28.40
2018-06-07T14:15:36.970Z,28.50
2018-06-07T14:18:05.122Z,28.60
2018-06-07T14:23:00.773Z,28.70
2018-06-07T14:25:28.862Z,28.60
2018-06-07T14:27:56.947Z,28.70
2018-06-07T14:30:25.094Z,28.90
2018-06-07T14:32:53.144Z,28.80
2018-06-07T14:35:21.328Z,28.80
2018-06-07T14:37:49.409Z,28.40
2018-06-07T14:40:17.478Z,28.40
2018-06-07T14:42:45.586Z,28.40
2018-06-07T14:45:13.642Z,28.60
2018-06-07T14:47:41.746Z,28.90
2018-06-07T14:50:09.852Z,28.70
2018-06-07T14:52:37.905Z,28.80
2018-06-07T14:55:06.026Z,28.70
2018-06-07T14:57:34.109Z,28.80
2018-06-07T15:00:02.281Z,28.70
2018-06-07T15:02:30.363Z,28.70
2018-06-07T15:04:58.413Z,28.80
2018-06-07T15:07:26.521Z,29.00
2018-06-07T15:09:54.553Z,28.90
2018-06-07T15:12:22.616Z,29.00
2018-06-07T15:14:50.706Z,29.10
2018-06-07T15:17:18.791Z,29.10
2018-06-07T15:19:46.884Z,29.10
2018-06-07T15:22:14.973Z,29.10
2018-06-07T15:24:43.082Z,29.00
2018-06-07T15:27:11.138Z,29.20
2018-06-07T15:29:39.229Z,29.00
2018-06-07T15:32:07.301Z,28.90
2018-06-07T15:34:35.370Z,28.70
2018-06-07T15:37:03.509Z,29.00
2018-06-07T15:39:31.609Z,29.00
2018-06-07T15:41:59.714Z,29.00
2018-06-07T15:44:27.807Z,29.50
2018-06-07T15:46:55.857Z,29.40
2018-06-07T15:51:30.501Z,29.60
2018-06-07T15:53:58.647Z,29.90
2018-06-07T15:56:26.725Z,29.90
2018-06-07T15:58:54.778Z,29.70
2018-06-07T16:01:22.876Z,29.60
2018-06-07T16:03:50.934Z,29.80
2018-06-07T16:06:19.005Z,30.00
2018-06-07T16:08:47.089Z,30.20
2018-06-07T16:11:15.183Z,30.20
2018-06-07T16:13:43.285Z,30.20
2018-06-07T16:18:39.006Z,30.20
2018-06-07T16:21:07.073Z,30.00
2018-06-07T16:23:35.143Z,30.00
2018-06-07T16:26:03.257Z,30.00
2018-06-07T16:28:31.464Z,30.10
2018-06-07T16:30:59.545Z,30.10
2018-06-07T16:33:34.246Z,30.20
2018-06-07T16:36:02.408Z,30.40
2018-06-07T16:38:30.508Z,30.20
2018-06-07T16:40:58.555Z,30.20
2018-06-07T16:43:26.630Z,30.10
2018-06-07T16:45:54.707Z,29.90
2018-06-07T16:48:22.803Z,29.70
2018-06-07T16:50:50.887Z,30.00
2018-06-07T16:53:18.934Z,30.10
2018-06-07T16:55:47.005Z,29.80
2018-06-07T16:58:15.138Z,29.80
2018-06-07T17:00:43.280Z,29.90
2018-06-07T17:03:13.721Z,29.80
2018-06-07T17:05:41.869Z,29.70
2018-06-07T17:08:09.994Z,29.50
2018-06-07T17:10:38.150Z,29.50
2018-06-07T17:13:06.317Z,29.50
2018-06-07T17:15:36.449Z,29.50
2018-06-07T17:18:04.540Z,29.40
2018-06-07T17:20:32.642Z,29.30
2018-06-07T17:23:00.693Z,29.10
2018-06-07T17:25:28.793Z,28.90
2018-06-07T17:27:56.902Z,28.80
2018-06-07T17:30:24.934Z,28.80
2018-06-07T17:32:53.026Z,28.80
2018-06-07T17:35:21.121Z,28.90
2018-06-07T17:37:51.253Z,28.60
2018-06-07T17:40:19.318Z,28.40
2018-06-07T17:42:47.379Z,28.40
2018-06-07T17:45:15.467Z,28.30
2018-06-07T17:47:43.510Z,28.40
2018-06-07T17:50:11.561Z,28.20
2018-06-07T17:52:39.652Z,28.30
2018-06-07T17:57:35.310Z,28.20
2018-06-07T18:00:03.437Z,28.00
2018-06-07T18:02:31.542Z,28.00
2018-06-07T18:04:59.638Z,27.80
2018-06-07T18:07:27.671Z,27.90
2018-06-07T18:09:55.759Z,27.90
2018-06-07T18:12:23.914Z,27.90
2018-06-07T18:14:51.977Z,27.90
2018-06-07T18:17:20.127Z,27.70
2018-06-07T18:19:48.197Z,27.50
2018-06-07T18:22:16.295Z,27.00
2018-06-07T18:24:44.339Z,27.00
2018-06-07T18:27:12.414Z,26.70
2018-06-07T18:29:40.514Z,26.70
2018-06-07T18:32:08.571Z,26.80
2018-06-07T18:34:36.647Z,26.80
2018-06-07T18:37:04.755Z,26.70
2018-06-07T18:39:32.829Z,26.60
2018-06-07T18:42:00.930Z,26.60
2018-06-07T18:44:28.982Z,26.50
2018-06-07T18:46:57.136Z,26.50
2018-06-07T18:49:25.205Z,26.60
2018-06-07T18:51:53.286Z,26.50
2018-06-07T18:54:21.384Z,26.40
2018-06-07T18:56:49.430Z,26.30
2018-06-07T18:59:17.499Z,26.40
2018-06-07T19:01:45.542Z,26.40
2018-06-07T19:04:13.608Z,26.30
2018-06-07T19:06:41.685Z,26.10
2018-06-07T19:09:14.957Z,26.00
2018-06-07T19:11:43.030Z,26.00
2018-06-07T19:14:16.404Z,25.90
2018-06-07T19:16:44.493Z,25.80
2018-06-07T19:19:17.712Z,25.70
2018-06-07T19:21:45.809Z,25.70
2018-06-07T19:24:13.913Z,25.60
2018-06-07T19:26:47.234Z,25.50
2018-06-07T19:29:15.313Z,25.30
2018-06-07T19:31:48.690Z,25.20
2018-06-07T19:34:22.093Z,25.20
2018-06-07T19:36:50.232Z,25.20
2018-06-07T19:39:23.601Z,25.10
2018-06-07T20:25:38.498Z,25.10
2018-06-07T20:28:06.637Z,23.80
2018-06-07T20:30:35.129Z,23.70
2018-06-07T20:33:03.236Z,23.80
2018-06-07T20:35:31.277Z,23.80
2018-06-07T20:37:59.446Z,23.90
2018-06-07T20:40:27.528Z,23.90
2018-06-07T20:42:55.582Z,23.90
2018-06-07T20:45:23.670Z,23.90
2018-06-07T20:47:51.738Z,23.90
2018-06-07T20:50:19.880Z,23.90
2018-06-07T20:52:47.973Z,23.50
2018-06-07T20:55:16.031Z,23.40
2018-06-07T20:57:44.089Z,23.50
2018-06-07T21:00:12.170Z,23.30
2018-06-07T21:02:45.725Z,23.30
2018-06-07T21:05:13.799Z,23.30
2018-06-07T21:07:41.845Z,23.20
2018-06-07T21:10:09.935Z,23.20
2018-06-07T21:12:37.989Z,23.10
2018-06-07T21:15:06.109Z,23.10
2018-06-07T21:17:34.174Z,22.90
2018-06-07T21:20:02.254Z,23.00
2018-06-07T21:22:30.460Z,22.90
2018-06-07T21:24:58.619Z,22.70
2018-06-07T21:27:26.806Z,22.80
2018-06-07T21:29:55.019Z,22.90
2018-06-07T21:32:23.239Z,22.90
2018-06-07T21:34:51.492Z,22.90
2018-06-07T21:37:19.794Z,22.90
2018-06-07T21:39:48.012Z,22.90
2018-06-07T21:42:16.282Z,22.60
2018-06-07T21:44:44.570Z,22.70
2018-06-07T21:47:12.833Z,22.60
2018-06-07T21:49:41.058Z,22.60
2018-06-07T21:52:09.362Z,22.60
2018-06-07T21:54:37.580Z,22.70
2018-06-07T21:57:05.759Z,22.60
2018-06-07T21:59:34.054Z,22.60
2018-06-07T22:02:02.248Z,22.30
2018-06-07T22:04:30.504Z,22.10
2018-06-07T22:06:58.822Z,21.90
2018-06-07T22:09:27.080Z,21.70
2018-06-07T22:11:55.351Z,21.80
2018-06-07T22:14:23.541Z,21.90
2018-06-07T22:16:51.746Z,22.10
2018-06-07T22:19:19.986Z,22.20
2018-06-07T22:21:48.175Z,22.20
2018-06-07T22:26:44.007Z,22.20
2018-06-07T22:29:12.277Z,22.20
2018-06-07T22:31:40.450Z,22.20
2018-06-07T22:34:08.657Z,22.20
2018-06-07T22:36:36.930Z,22.20
2018-06-07T22:39:06.757Z,22.10
2018-06-07T22:41:34.965Z,22.20
2018-06-07T22:44:03.327Z,22.20
2018-06-07T22:46:31.582Z,22.10
2018-06-07T22:48:59.822Z,21.90
2018-06-07T22:51:28.059Z,21.90
2018-06-07T22:53:56.315Z,21.90
2018-06-07T22:56:24.495Z,21.90
2018-06-07T22:58:52.684Z,21.80
2018-06-07T23:01:20.902Z,21.80
2018-06-07T23:03:49.058Z,21.80
2018-06-07T23:06:17.278Z,21.80
2018-06-07T23:08:45.451Z,21.70
2018-06-07T23:11:13.770Z,21.60
2018-06-07T23:13:41.926Z,21.60
2018-06-07T23:16:09.977Z,21.50
2018-06-07T23:18:38.067Z,21.50
2018-06-07T23:21:06.240Z,21.60
2018-06-07T23:23:34.274Z,21.60
2018-06-07T23:26:02.438Z,21.60
2018-06-07T23:28:30.484Z,21.60
2018-06-07T23:30:58.600Z,21.60
2018-06-07T23:33:26.709Z,21.60
2018-06-07T23:35:54.800Z,21.50
2018-06-07T23:38:22.931Z,21.40
2018-06-07T23:40:50.997Z,21.30
2018-06-07T23:43:19.085Z,21.20
2018-06-07T23:45:47.208Z,21.20
2018-06-07T23:48:15.261Z,21.10
2018-06-07T23:50:43.370Z,21.20
2018-06-07T23:53:11.389Z,21.20
2018-06-07T23:55:39.490Z,21.10
2018-06-07T23:58:07.545Z,21.00
